createdAt,value
2023-01-18T00:01:19.540Z,27.72
2023-01-18T00:03:47.335Z,28.05
2023-01-18T00:06:15.308Z,27.44
2023-01-18T00:08:42.916Z,27.72
2023-01-18T00:11:16.222Z,27.84
2023-01-18T00:13:44.533Z,28.22
2023-01-18T00:16:14.297Z,28.51
2023-01-18T00:18:42.317Z,28.43
2023-01-18T00:21:11.800Z,28.16
2023-01-18T00:23:40.221Z,28.38
2023-01-18T00:26:10.101Z,28.79
2023-01-18T00:28:38.890Z,28.76
2023-01-18T00:31:15.605Z,28.73
2023-01-18T00:33:44.891Z,28.48
2023-01-18T00:36:14.078Z,28.36
2023-01-18T00:38:42.133Z,28.75
2023-01-18T00:41:09.771Z,28.57
2023-01-18T00:43:40.102Z,28.84
2023-01-18T00:46:09.162Z,28.43
2023-01-18T00:48:37.273Z,28.08
2023-01-18T00:51:05.866Z,28.66
2023-01-18T00:53:33.365Z,28.28
2023-01-18T00:56:00.997Z,28.06
2023-01-18T00:58:29.618Z,28.39
2023-01-18T01:00:57.200Z,28.18
2023-01-18T01:03:24.783Z,28.66
2023-01-18T01:06:10.656Z,28.62
2023-01-18T01:08:38.196Z,28.96
2023-01-18T01:11:09.377Z,28.61
2023-01-18T01:13:56.488Z,28.50
2023-01-18T01:16:43.070Z,28.95
2023-01-18T01:19:28.788Z,28.71
2023-01-18T01:22:14.697Z,28.92
2023-01-18T01:25:00.450Z,28.66
2023-01-18T01:27:28.531Z,28.91
2023-01-18T01:29:56.140Z,28.86
2023-01-18T01:32:23.667Z,28.61
2023-01-18T01:34:51.258Z,29.46
2023-01-18T01:37:18.741Z,28.97
2023-01-18T01:39:46.238Z,29.15
2023-01-18T01:42:13.915Z,28.83
2023-01-18T01:44:45.672Z,29.44
2023-01-18T01:47:34.987Z,28.90
2023-01-18T01:50:09.711Z,29.37
2023-01-18T01:52:40.297Z,29.18
2023-01-18T01:55:25.354Z,29.11
2023-01-18T01:58:07.936Z,29.05
2023-01-18T02:00:35.802Z,28.94
2023-01-18T02:03:09.634Z,29.30
2023-01-18T02:05:42.984Z,29.37
2023-01-18T02:08:13.612Z,28.79
2023-01-18T02:10:41.330Z,28.88
2023-01-18T02:13:11.416Z,29.07
2023-01-18T02:16:07.076Z,29.37
2023-01-18T02:18:56.379Z,28.69
2023-01-18T02:21:31.033Z,28.86
2023-01-18T02:24:19.982Z,28.71
2023-01-18T02:27:00.459Z,28.29
2023-01-18T02:29:53.769Z,28.95
2023-01-18T02:32:53.873Z,28.81
2023-01-18T02:35:47.545Z,27.84
2023-01-18T02:38:28.776Z,28.41
2023-01-18T02:41:22.436Z,28.39
2023-01-18T02:44:12.196Z,27.93
2023-01-18T02:46:40.669Z,27.93
2023-01-18T02:49:11.778Z,27.84
2023-01-18T02:51:39.823Z,27.63
2023-01-18T02:54:10.127Z,27.23
2023-01-18T02:56:50.022Z,27.97
2023-01-18T02:59:26.615Z,27.97
2023-01-18T03:02:09.892Z,27.55
2023-01-18T03:04:54.551Z,27.70
2023-01-18T03:07:32.934Z,28.04
2023-01-18T03:10:04.208Z,27.23
2023-01-18T03:13:00.503Z,27.67
2023-01-18T03:15:38.479Z,27.53
2023-01-18T03:18:28.304Z,27.38
2023-01-18T03:20:57.476Z,27.31
2023-01-18T03:23:42.283Z,27.34
2023-01-18T03:26:16.821Z,27.62
2023-01-18T03:29:05.628Z,27.20
2023-01-18T03:32:00.687Z,27.66
2023-01-18T03:34:44.808Z,27.15
2023-01-18T03:37:17.095Z,27.48
2023-01-18T03:39:51.930Z,27.69
2023-01-18T03:42:28.249Z,27.56
2023-01-18T03:45:11.287Z,27.63
2023-01-18T03:47:39.331Z,27.39
2023-01-18T03:50:07.152Z,27.24
2023-01-18T03:52:47.084Z,27.47
2023-01-18T03:55:21.375Z,27.40
2023-01-18T03:58:07.632Z,27.70
2023-01-18T04:00:35.260Z,27.17
2023-01-18T04:03:02.870Z,27.45
2023-01-18T04:05:30.869Z,27.14
2023-01-18T04:07:58.545Z,27.37
2023-01-18T04:10:26.989Z,27.61
2023-01-18T04:12:54.735Z,28.16
2023-01-18T04:15:22.232Z,27.35
2023-01-18T04:17:53.416Z,27.68
2023-01-18T04:20:20.978Z,27.83
2023-01-18T04:22:55.114Z,28.29
2023-01-18T04:25:22.805Z,27.72
2023-01-18T04:27:50.261Z,27.77
2023-01-18T04:30:17.966Z,27.82
2023-01-18T04:32:46.541Z,27.49
2023-01-18T04:35:14.180Z,27.22
2023-01-18T04:37:41.967Z,27.33
2023-01-18T04:40:10.339Z,27.29
2023-01-18T04:42:37.791Z,27.12
2023-01-18T04:45:05.920Z,26.10
2023-01-18T04:47:33.388Z,26.70
2023-01-18T04:50:01.336Z,26.15
2023-01-18T04:52:32.487Z,25.60
2023-01-18T04:55:00.055Z,25.48
2023-01-18T04:57:27.626Z,24.62
2023-01-18T04:59:55.155Z,24.15
2023-01-18T05:02:22.681Z,24.05
2023-01-18T05:04:50.135Z,23.46
2023-01-18T05:07:17.667Z,23.09
2023-01-18T05:09:45.210Z,22.93
2023-01-18T05:12:12.857Z,22.95
2023-01-18T05:14:40.321Z,22.57
2023-01-18T05:17:07.814Z,21.47
2023-01-18T05:19:35.363Z,21.32
2023-01-18T05:22:02.903Z,20.38
2023-01-18T05:24:30.525Z,20.06
2023-01-18T05:26:58.070Z,20.30
2023-01-18T05:29:25.721Z,20.13
2023-01-18T05:31:53.533Z,19.76
2023-01-18T05:34:21.050Z,19.86
2023-01-18T05:36:49.026Z,19.13
2023-01-18T05:39:16.565Z,19.56
2023-01-18T05:41:44.029Z,18.63
2023-01-18T05:44:11.604Z,18.31
2023-01-18T05:46:39.067Z,18.16
2023-01-18T05:49:06.535Z,17.41
2023-01-18T05:51:34.196Z,17.41
2023-01-18T05:54:01.823Z,17.12
2023-01-18T05:56:29.417Z,16.85
2023-01-18T05:58:57.122Z,16.94
2023-01-18T06:01:24.689Z,16.47
2023-01-18T06:03:52.224Z,16.49
2023-01-18T06:06:19.794Z,16.20
2023-01-18T06:08:47.221Z,16.04
2023-01-18T06:11:14.790Z,16.00
2023-01-18T06:13:42.343Z,15.83
2023-01-18T06:16:09.989Z,15.48
2023-01-18T06:18:39.132Z,14.97
2023-01-18T06:21:08.238Z,15.23
2023-01-18T06:26:17.063Z,14.62
2023-01-18T06:28:44.588Z,14.34
2023-01-18T06:31:14.770Z,14.36
2023-01-18T06:33:42.695Z,13.97
2023-01-18T06:36:10.693Z,14.11
2023-01-18T06:38:38.328Z,13.16
2023-01-18T06:41:06.016Z,13.70
2023-01-18T06:43:33.738Z,13.08
2023-01-18T06:46:01.850Z,13.20
2023-01-18T06:48:33.954Z,13.22
2023-01-18T06:51:04.258Z,11.97
2023-01-18T06:53:31.710Z,12.52
2023-01-18T06:56:02.248Z,12.36
2023-01-18T06:58:33.444Z,11.96
2023-01-18T07:01:01.585Z,11.58
2023-01-18T07:03:30.709Z,11.77
2023-01-18T07:06:00.735Z,11.83
2023-01-18T07:08:31.666Z,11.82
2023-01-18T07:11:03.819Z,11.54
2023-01-18T07:13:31.411Z,11.45
2023-01-18T07:16:02.428Z,11.36
2023-01-18T07:18:30.987Z,11.29
2023-01-18T07:21:04.364Z,11.27
2023-01-18T07:23:32.444Z,11.77
2023-01-18T07:26:08.293Z,12.09
2023-01-18T07:28:36.833Z,12.00
2023-01-18T07:31:10.076Z,12.65
2023-01-18T07:33:41.091Z,12.40
2023-01-18T07:36:13.522Z,12.71
2023-01-18T07:38:47.316Z,13.18
2023-01-18T07:44:05.726Z,13.69
2023-01-18T07:46:36.767Z,13.52
2023-01-18T07:51:47.706Z,13.63
2023-01-18T07:54:18.666Z,13.61
2023-01-18T07:59:32.748Z,14.20
2023-01-18T08:02:14.605Z,14.44
2023-01-18T08:04:53.039Z,14.54
2023-01-18T08:07:21.931Z,15.10
2023-01-18T08:09:50.915Z,15.51
2023-01-18T08:12:19.311Z,15.74
2023-01-18T08:14:47.525Z,16.05
2023-01-18T08:17:17.419Z,16.24
2023-01-18T08:19:48.083Z,16.41
2023-01-18T08:22:16.178Z,16.94
2023-01-18T08:24:44.817Z,17.14
2023-01-18T08:27:15.031Z,17.45
2023-01-18T08:29:42.835Z,17.35
2023-01-18T08:32:10.691Z,17.93
2023-01-18T08:34:39.428Z,18.47
2023-01-18T08:37:12.100Z,18.25
2023-01-18T08:39:39.980Z,18.81
2023-01-18T08:42:07.821Z,18.73
2023-01-18T08:44:35.620Z,18.69
2023-01-18T08:47:03.672Z,19.30
2023-01-18T08:49:33.003Z,18.70
2023-01-18T08:52:00.664Z,18.88
2023-01-18T08:54:28.365Z,19.31
2023-01-18T08:56:56.047Z,19.46
2023-01-18T08:59:24.350Z,19.76
2023-01-18T09:01:51.936Z,19.95
2023-01-18T09:04:20.148Z,20.17
2023-01-18T09:06:52.369Z,20.08
2023-01-18T09:09:20.106Z,19.88
2023-01-18T09:11:51.617Z,19.74
2023-01-18T09:14:19.830Z,20.11
2023-01-18T09:16:47.320Z,20.28
2023-01-18T09:19:15.148Z,20.28
2023-01-18T09:21:42.777Z,20.62
2023-01-18T09:24:10.755Z,20.92
2023-01-18T09:26:38.370Z,20.47
2023-01-18T09:29:06.197Z,20.88
2023-01-18T09:31:34.011Z,20.91
2023-01-18T09:34:17.970Z,20.55
2023-01-18T09:36:47.148Z,20.95
2023-01-18T09:39:14.903Z,21.35
2023-01-18T09:41:45.293Z,21.47
2023-01-18T09:44:30.288Z,21.60
2023-01-18T09:47:06.508Z,21.17
2023-01-18T09:49:46.963Z,21.47
2023-01-18T09:52:33.839Z,21.96
2023-01-18T09:55:23.048Z,22.08
2023-01-18T09:58:08.731Z,22.56
2023-01-18T10:00:40.564Z,22.73
2023-01-18T10:03:23.967Z,23.00
2023-01-18T10:06:09.078Z,22.67
2023-01-18T10:09:02.448Z,22.67
2023-01-18T10:12:03.803Z,22.99
2023-01-18T10:15:00.757Z,23.51
2023-01-18T10:17:36.984Z,23.53
2023-01-18T10:20:17.232Z,23.13
2023-01-18T10:23:01.327Z,23.64
2023-01-18T10:25:55.653Z,23.96
2023-01-18T10:28:41.291Z,24.22
2023-01-18T10:31:36.412Z,24.40
2023-01-18T10:34:13.269Z,25.05
2023-01-18T10:36:46.552Z,25.01
2023-01-18T10:39:38.804Z,25.04
2023-01-18T10:42:19.384Z,25.32
2023-01-18T10:44:48.229Z,25.29
2023-01-18T10:47:20.268Z,25.98
2023-01-18T10:49:50.960Z,26.41
2023-01-18T10:52:23.763Z,26.59
2023-01-18T10:54:56.125Z,26.42
2023-01-18T10:57:28.974Z,26.87
2023-01-18T10:59:57.325Z,26.95
2023-01-18T11:02:30.430Z,27.05
2023-01-18T11:05:03.312Z,27.04
2023-01-18T11:07:31.463Z,27.49
2023-01-18T11:10:02.712Z,27.32
2023-01-18T11:12:42.879Z,27.29
2023-01-18T11:15:16.469Z,27.38
2023-01-18T11:18:03.476Z,27.50
2023-01-18T11:20:51.312Z,27.59
2023-01-18T11:23:31.083Z,27.62
2023-01-18T11:26:13.282Z,27.98
2023-01-18T11:28:53.090Z,28.33
2023-01-18T11:31:25.972Z,28.43
2023-01-18T11:33:59.858Z,28.78
2023-01-18T11:36:41.138Z,28.32
2023-01-18T11:39:26.759Z,28.58
2023-01-18T11:42:26.990Z,28.83
2023-01-18T11:45:14.650Z,28.61
2023-01-18T11:47:51.338Z,29.12
2023-01-18T11:50:35.487Z,29.45
2023-01-18T11:53:26.999Z,29.38
2023-01-18T11:56:12.982Z,29.24
2023-01-18T11:58:42.301Z,29.33
2023-01-18T12:01:10.276Z,29.59
2023-01-18T12:04:04.454Z,29.48
2023-01-18T12:07:09.814Z,28.87
2023-01-18T12:09:54.736Z,28.41
2023-01-18T12:12:59.585Z,28.14
2023-01-18T12:15:52.347Z,28.18
2023-01-18T12:18:35.163Z,27.32
2023-01-18T12:21:11.974Z,27.19
2023-01-18T12:23:55.185Z,27.32
2023-01-18T12:26:37.795Z,27.54
2023-01-18T12:29:19.692Z,27.28
2023-01-18T12:32:31.979Z,26.94
2023-01-18T12:35:24.007Z,27.12
2023-01-18T12:37:55.635Z,26.33
2023-01-18T12:40:32.897Z,26.56
2023-01-18T12:43:00.384Z,26.25
2023-01-18T12:45:43.101Z,26.36
2023-01-18T12:48:22.262Z,26.62
2023-01-18T12:50:51.573Z,26.35
2023-01-18T12:53:25.432Z,26.98
2023-01-18T12:55:54.973Z,26.46
2023-01-18T12:58:26.414Z,26.44
2023-01-18T13:01:05.400Z,26.57
2023-01-18T13:03:41.836Z,26.72
2023-01-18T13:06:10.252Z,26.61
2023-01-18T13:08:50.139Z,26.24
2023-01-18T13:11:32.338Z,26.45
2023-01-18T13:14:18.032Z,26.75
2023-01-18T13:17:03.946Z,26.54
2023-01-18T13:19:55.260Z,26.40
2023-01-18T13:22:26.544Z,26.04
2023-01-18T13:25:31.775Z,25.80
2023-01-18T13:28:14.356Z,25.66
2023-01-18T13:30:56.886Z,26.07
2023-01-18T13:33:27.333Z,26.68
2023-01-18T13:35:58.198Z,26.07
2023-01-18T13:38:40.703Z,25.73
2023-01-18T13:41:12.688Z,25.95
2023-01-18T13:43:46.415Z,26.16
2023-01-18T13:46:23.932Z,25.68
2023-01-18T13:49:00.419Z,26.08
2023-01-18T13:51:37.172Z,26.35
2023-01-18T13:54:04.903Z,26.33
2023-01-18T13:56:37.850Z,26.15
2023-01-18T13:59:19.099Z,26.25
2023-01-18T14:01:49.185Z,26.07
2023-01-18T14:04:46.477Z,26.12
2023-01-18T14:07:23.838Z,26.43
2023-01-18T14:09:52.044Z,26.52
2023-01-18T14:13:04.636Z,25.94
2023-01-18T14:15:44.440Z,25.92
2023-01-18T14:18:30.516Z,26.29
2023-01-18T14:21:24.227Z,25.55
2023-01-18T14:24:00.897Z,26.36
2023-01-18T14:26:35.762Z,26.01
2023-01-18T14:29:08.509Z,26.24
2023-01-18T14:31:42.909Z,26.20
2023-01-18T14:34:36.609Z,26.23
2023-01-18T14:37:23.596Z,26.24
2023-01-18T14:40:17.107Z,26.06
2023-01-18T14:43:15.164Z,26.25
2023-01-18T14:45:54.557Z,26.53
2023-01-18T14:48:24.682Z,26.72
2023-01-18T14:50:54.610Z,25.98
2023-01-18T14:53:25.772Z,26.47
2023-01-18T14:56:19.824Z,25.42
2023-01-18T14:59:03.512Z,26.11
2023-01-18T15:01:32.631Z,26.29
2023-01-18T15:04:02.628Z,26.14
2023-01-18T15:06:47.342Z,26.25
2023-01-18T15:09:15.904Z,26.03
2023-01-18T15:11:45.539Z,26.31
2023-01-18T15:14:24.002Z,27.01
2023-01-18T15:16:55.919Z,26.04
2023-01-18T15:19:28.252Z,25.99
2023-01-18T15:22:00.625Z,25.99
2023-01-18T15:24:31.276Z,25.76
2023-01-18T15:27:05.453Z,26.66
2023-01-18T15:29:35.935Z,26.36
2023-01-18T15:32:41.271Z,26.32
2023-01-18T15:35:14.767Z,25.72
2023-01-18T15:37:42.495Z,26.34
2023-01-18T15:40:13.110Z,25.55
2023-01-18T15:42:59.378Z,26.21
2023-01-18T15:45:33.799Z,26.13
2023-01-18T15:48:08.020Z,26.16
2023-01-18T15:50:45.515Z,25.86
2023-01-18T15:53:36.367Z,26.14
2023-01-18T15:56:09.454Z,26.21
2023-01-18T15:58:47.569Z,25.82
2023-01-18T16:01:22.193Z,25.76
2023-01-18T16:03:54.775Z,26.04
2023-01-18T16:06:24.968Z,26.36
2023-01-18T16:09:12.648Z,26.54
2023-01-18T16:11:49.044Z,26.38
2023-01-18T16:14:29.684Z,26.63
2023-01-18T16:17:09.774Z,26.27
2023-01-18T16:19:41.435Z,26.35
2023-01-18T16:22:27.208Z,26.39
2023-01-18T16:24:55.993Z,26.43
2023-01-18T16:27:26.158Z,26.78
2023-01-18T16:30:03.361Z,26.60
2023-01-18T16:32:36.707Z,26.27
2023-01-18T16:35:20.034Z,26.06
2023-01-18T16:37:48.939Z,26.35
2023-01-18T16:40:20.946Z,26.90
2023-01-18T16:42:59.046Z,26.85
2023-01-18T16:45:29.538Z,26.46
2023-01-18T16:47:57.637Z,26.51
2023-01-18T16:50:31.128Z,26.61
2023-01-18T16:53:22.667Z,26.37
2023-01-18T16:56:18.918Z,27.19
2023-01-18T17:02:11.921Z,27.01
2023-01-18T17:04:41.776Z,26.67
2023-01-18T17:07:31.289Z,27.27
2023-01-18T17:10:00.694Z,26.90
2023-01-18T17:12:28.434Z,27.45
2023-01-18T17:14:55.926Z,27.43
2023-01-18T17:17:23.761Z,27.32
2023-01-18T17:19:52.340Z,27.12
2023-01-18T17:22:25.010Z,26.85
2023-01-18T17:24:54.655Z,27.15
2023-01-18T17:27:22.259Z,27.06
2023-01-18T17:29:49.761Z,27.52
2023-01-18T17:32:19.512Z,26.88
2023-01-18T17:34:54.438Z,27.11
2023-01-18T17:37:22.540Z,27.23
2023-01-18T17:40:10.872Z,27.41
2023-01-18T17:42:41.684Z,27.35
2023-01-18T17:45:14.721Z,27.96
2023-01-18T17:47:50.767Z,27.41
2023-01-18T17:50:24.944Z,27.64
2023-01-18T17:52:54.667Z,27.80
2023-01-18T17:55:27.395Z,27.58
2023-01-18T17:58:02.926Z,27.90
2023-01-18T18:00:30.830Z,27.84
2023-01-18T18:03:00.497Z,27.67
2023-01-18T18:05:29.088Z,27.80
2023-01-18T18:07:56.755Z,27.80
2023-01-18T18:10:24.531Z,27.92
2023-01-18T18:12:52.411Z,27.38
2023-01-18T18:15:22.944Z,27.94
2023-01-18T18:17:50.556Z,28.66
2023-01-18T18:20:18.462Z,27.83
2023-01-18T18:22:46.210Z,28.01
2023-01-18T18:25:14.134Z,28.18
2023-01-18T18:27:46.084Z,28.11
2023-01-18T18:30:17.825Z,27.83
2023-01-18T18:32:45.988Z,28.27
2023-01-18T18:35:25.118Z,28.30
2023-01-18T18:37:54.589Z,28.71
2023-01-18T18:40:22.709Z,28.35
2023-01-18T18:43:06.912Z,28.44
2023-01-18T18:45:35.439Z,28.53
2023-01-18T18:48:11.875Z,28.17
2023-01-18T18:50:42.792Z,27.79
2023-01-18T18:53:13.862Z,28.72
2023-01-18T18:55:49.448Z,28.46
2023-01-18T18:58:19.617Z,28.77
2023-01-18T19:00:47.288Z,28.64
2023-01-18T19:03:14.883Z,28.68
2023-01-18T19:05:42.854Z,28.55
2023-01-18T19:08:10.420Z,28.69
2023-01-18T19:10:39.474Z,29.07
2023-01-18T19:13:07.741Z,29.14
2023-01-18T19:15:35.366Z,29.32
2023-01-18T19:18:03.079Z,29.75
2023-01-18T19:20:30.907Z,29.26
2023-01-18T19:22:59.252Z,29.31
2023-01-18T19:25:27.078Z,29.73
2023-01-18T19:27:54.931Z,30.00
2023-01-18T19:30:22.791Z,30.15
2023-01-18T19:32:51.460Z,30.46
2023-01-18T19:35:20.972Z,30.40
2023-01-18T19:37:48.848Z,30.05
2023-01-18T19:40:17.045Z,30.37
2023-01-18T19:42:45.245Z,30.85
2023-01-18T19:45:19.629Z,30.71
2023-01-18T19:47:55.519Z,30.69
2023-01-18T19:50:24.156Z,31.32
2023-01-18T19:52:52.646Z,30.92
2023-01-18T19:55:21.879Z,30.75
2023-01-18T19:57:52.587Z,30.96
2023-01-18T20:00:20.753Z,31.77
2023-01-18T20:02:48.549Z,31.58
2023-01-18T20:05:16.170Z,31.94
2023-01-18T20:07:43.772Z,31.74
2023-01-18T20:10:11.656Z,31.85
2023-01-18T20:12:40.633Z,32.62
2023-01-18T20:15:08.545Z,32.20
2023-01-18T20:17:36.021Z,32.52
2023-01-18T20:20:04.525Z,32.67
2023-01-18T20:22:32.234Z,32.87
2023-01-18T20:24:59.999Z,32.95
2023-01-18T20:27:27.805Z,32.95
2023-01-18T20:29:59.585Z,33.19
2023-01-18T20:32:27.511Z,33.94
2023-01-18T20:34:55.166Z,33.33
2023-01-18T20:37:22.988Z,33.32
2023-01-18T20:39:50.635Z,33.59
2023-01-18T20:42:18.618Z,33.62
2023-01-18T20:44:49.498Z,33.54
2023-01-18T20:47:17.095Z,34.27
2023-01-18T20:49:45.673Z,34.45
2023-01-18T20:52:13.261Z,34.33
2023-01-18T20:54:40.744Z,33.71
2023-01-18T20:57:09.775Z,33.93
2023-01-18T20:59:37.319Z,33.79
2023-01-18T21:02:05.196Z,34.36
2023-01-18T21:04:32.791Z,34.38
2023-01-18T21:07:00.258Z,34.43
2023-01-18T21:09:27.945Z,34.78
2023-01-18T21:11:55.397Z,35.02
2023-01-18T21:14:23.107Z,34.54
2023-01-18T21:16:50.747Z,34.53
2023-01-18T21:19:18.261Z,34.54
2023-01-18T21:21:45.802Z,34.34
2023-01-18T21:24:13.402Z,34.49
2023-01-18T21:26:41.012Z,34.72
2023-01-18T21:29:08.578Z,35.08
2023-01-18T21:31:36.058Z,34.97
2023-01-18T21:34:03.891Z,34.97
2023-01-18T21:36:31.506Z,35.26
2023-01-18T21:38:59.075Z,35.35
2023-01-18T21:41:44.776Z,35.38
2023-01-18T21:44:31.390Z,35.95
2023-01-18T21:46:59.443Z,36.21
2023-01-18T21:50:16.032Z,35.67
2023-01-18T21:52:51.916Z,36.27
2023-01-18T21:55:20.300Z,36.28
2023-01-18T21:58:07.725Z,36.33
2023-01-18T22:00:40.072Z,35.83
2023-01-18T22:03:07.955Z,36.42
2023-01-18T22:05:35.767Z,36.60
2023-01-18T22:08:03.446Z,36.38
2023-01-18T22:10:31.225Z,36.38
2023-01-18T22:12:58.692Z,36.12
2023-01-18T22:15:26.288Z,36.28
2023-01-18T22:17:53.799Z,36.70
2023-01-18T22:20:21.262Z,36.24
2023-01-18T22:22:48.858Z,35.97
2023-01-18T22:25:16.315Z,36.17
2023-01-18T22:27:43.736Z,36.30
2023-01-18T22:30:11.821Z,36.43
2023-01-18T22:32:39.505Z,36.60
2023-01-18T22:35:07.492Z,36.48
2023-01-18T22:37:35.042Z,36.37
2023-01-18T22:40:02.590Z,36.16
2023-01-18T22:42:31.866Z,36.21
2023-01-18T22:45:00.037Z,36.21
2023-01-18T22:47:27.999Z,35.89
2023-01-18T22:49:55.506Z,35.75
2023-01-18T22:52:22.954Z,36.48
2023-01-18T22:54:50.731Z,35.89
2023-01-18T22:57:18.253Z,35.95
2023-01-18T22:59:45.755Z,36.11
2023-01-18T23:02:13.219Z,36.44
2023-01-18T23:04:40.635Z,36.93
2023-01-18T23:07:08.156Z,36.71
2023-01-18T23:09:35.820Z,36.82
2023-01-18T23:12:03.523Z,36.52
2023-01-18T23:14:49.242Z,37.81
2023-01-18T23:17:35.104Z,37.57
2023-01-18T23:20:02.584Z,37.30
2023-01-18T23:22:31.472Z,37.34
2023-01-18T23:24:58.911Z,37.10
2023-01-18T23:27:26.431Z,37.42
2023-01-18T23:29:59.762Z,38.09
2023-01-18T23:32:30.724Z,37.59
2023-01-18T23:34:59.395Z,37.60
2023-01-18T23:37:27.697Z,37.59
2023-01-18T23:40:13.989Z,37.67
2023-01-18T23:42:59.961Z,36.99
2023-01-18T23:45:47.388Z,37.58
2023-01-18T23:48:35.715Z,38.15
2023-01-18T23:51:23.092Z,37.49
2023-01-18T23:54:09.153Z,37.62
2023-01-18T23:56:36.710Z,37.51
2023-01-18T23:59:04.286Z,37.52
